Time;durP1;ratioP1;P1;durP2;ratioP2;P2;SDS_P1;SDS_P2;PMS_P1;PMS_P2;Temp;Humidity;BMP_temperature;BMP_pressure;BME280_temperature;BME280_humidity;BME280_pressure;Samples;Min_cycle;Max_cycle;Signal;HPM_P1;HPM_P2
2023/10/23 00:01:00;;;;;;;1.02;0.80;;;;;;;;;;4987979;28;20042;-82
2023/10/23 00:03:26;;;;;;;0.90;0.80;;;;;;;;;;4987136;28;20049;-83
2023/10/23 00:05:52;;;;;;;0.70;0.70;;;;;;;;;;4988120;28;20054;-83
2023/10/23 00:08:18;;;;;;;0.70;0.70;;;;;;;;;;4988166;28;20078;-83
2023/10/23 00:10:48;;;;;;;0.60;0.60;;;;;;;;;;4988215;28;20026;-83
2023/10/23 00:13:14;;;;;;;0.52;0.52;;;;;;;;;;4988494;28;20058;-83
2023/10/23 00:15:40;;;;;;;0.68;0.65;;;;;;;;;;4989021;28;20022;-84
2023/10/23 00:18:07;;;;;;;0.98;0.85;;;;;;;;;;4988957;28;20030;-83
2023/10/23 00:20:33;;;;;;;0.60;0.60;;;;;;;;;;4988435;28;20042;-83
2023/10/23 00:22:59;;;;;;;0.70;0.68;;;;;;;;;;4987708;28;20034;-82
2023/10/23 00:25:25;;;;;;;0.60;0.60;;;;;;;;;;4984656;28;20037;-83
2023/10/23 00:27:51;;;;;;;0.57;0.57;;;;;;;;;;4982638;28;20062;-84
2023/10/23 00:30:17;;;;;;;0.57;0.57;;;;;;;;;;4985343;28;20168;-83
2023/10/23 00:32:43;;;;;;;0.60;0.60;;;;;;;;;;4987427;28;20026;-84
2023/10/23 00:35:09;;;;;;;0.77;0.60;;;;;;;;;;4986011;28;20029;-81
2023/10/23 00:37:35;;;;;;;0.80;0.73;;;;;;;;;;4986756;28;20046;-80
2023/10/23 00:40:02;;;;;;;1.10;1.00;;;;;;;;;;4986267;28;20057;-80
2023/10/23 00:42:28;;;;;;;0.68;0.68;;;;;;;;;;4987015;28;20026;-80
2023/10/23 00:44:54;;;;;;;0.73;0.70;;;;;;;;;;4987573;28;20027;-82
2023/10/23 00:47:21;;;;;;;0.55;0.50;;;;;;;;;;4987902;28;20530;-82
2023/10/23 00:49:47;;;;;;;0.60;0.60;;;;;;;;;;4988567;28;20027;-81
2023/10/23 00:52:13;;;;;;;1.95;0.88;;;;;;;;;;4989902;28;20080;-83
2023/10/23 00:54:40;;;;;;;0.60;0.60;;;;;;;;;;4989625;28;20471;-82
2023/10/23 00:57:07;;;;;;;0.68;0.60;;;;;;;;;;5010663;28;20031;-81
2023/10/23 00:59:33;;;;;;;0.82;0.80;;;;;;;;;;4999785;28;20042;-80
2023/10/23 01:01:59;;;;;;;0.73;0.70;;;;;;;;;;4989205;28;20057;-81
2023/10/23 01:04:27;;;;;;;0.50;0.50;;;;;;;;;;4989180;28;20049;-80
2023/10/23 01:06:53;;;;;;;2.55;1.00;;;;;;;;;;4986239;28;20518;-81
2023/10/23 01:09:19;;;;;;;0.70;0.60;;;;;;;;;;4989583;28;20030;-83
2023/10/23 01:11:45;;;;;;;0.70;0.70;;;;;;;;;;4987986;28;20026;-82
2023/10/23 01:14:11;;;;;;;1.25;0.70;;;;;;;;;;5003048;28;20022;-81
2023/10/23 01:16:37;;;;;;;0.98;0.75;;;;;;;;;;4985995;28;20061;-80
2023/10/23 01:19:04;;;;;;;1.40;0.90;;;;;;;;;;4986260;28;20018;-82
2023/10/23 01:21:30;;;;;;;1.75;1.30;;;;;;;;;;4987709;28;20018;-81
2023/10/23 01:23:58;;;;;;;0.73;0.70;;;;;;;;;;4987106;28;20030;-81
2023/10/23 01:26:24;;;;;;;0.68;0.65;;;;;;;;;;5004707;28;20025;-80
2023/10/23 01:28:50;;;;;;;0.73;0.60;;;;;;;;;;4999139;28;20069;-80
2023/10/23 01:31:17;;;;;;;0.65;0.60;;;;;;;;;;5006856;28;20018;-80
2023/10/23 01:33:43;;;;;;;1.52;0.95;;;;;;;;;;5005441;28;20058;-80
2023/10/23 01:36:09;;;;;;;0.70;0.70;;;;;;;;;;5006658;28;20458;-82
2023/10/23 01:38:35;;;;;;;1.13;0.85;;;;;;;;;;5005194;28;20121;-80
2023/10/23 01:41:01;;;;;;;0.85;0.70;;;;;;;;;;5006024;28;20026;-81
2023/10/23 01:43:27;;;;;;;0.80;0.70;;;;;;;;;;5007224;28;20022;-81
2023/10/23 01:45:53;;;;;;;0.75;0.70;;;;;;;;;;5007323;28;20114;-84
2023/10/23 01:48:19;;;;;;;1.02;0.90;;;;;;;;;;5008086;28;20057;-82
2023/10/23 01:50:45;;;;;;;0.95;0.70;;;;;;;;;;5007590;28;20113;-84
2023/10/23 01:53:12;;;;;;;0.68;0.68;;;;;;;;;;5008603;28;20135;-84
2023/10/23 01:55:38;;;;;;;0.80;0.70;;;;;;;;;;5010251;28;20025;-84
2023/10/23 01:58:04;;;;;;;0.93;0.82;;;;;;;;;;5009266;28;20022;-81
2023/10/23 02:00:30;;;;;;;1.02;0.77;;;;;;;;;;5007241;28;20024;-82
2023/10/23 02:02:56;;;;;;;0.75;0.70;;;;;;;;;;5006838;28;20028;-83
2023/10/23 02:05:22;;;;;;;0.98;0.80;;;;;;;;;;5007476;28;20022;-81
2023/10/23 02:07:48;;;;;;;0.77;0.70;;;;;;;;;;5008100;28;20068;-84
2023/10/23 02:10:14;;;;;;;0.88;0.70;;;;;;;;;;5007862;28;20026;-85
2023/10/23 02:12:40;;;;;;;1.08;0.90;;;;;;;;;;5008363;28;20392;-83
2023/10/23 02:15:09;;;;;;;0.88;0.70;;;;;;;;;;5008372;28;20026;-82
2023/10/23 02:17:35;;;;;;;0.73;0.70;;;;;;;;;;5008253;28;20024;-82
2023/10/23 02:20:01;;;;;;;0.50;0.50;;;;;;;;;;5007519;28;20045;-83
2023/10/23 02:22:28;;;;;;;0.70;0.70;;;;;;;;;;5008768;28;20029;-83
2023/10/23 02:24:54;;;;;;;0.82;0.70;;;;;;;;;;5008542;28;20025;-84
2023/10/23 02:27:20;;;;;;;0.60;0.60;;;;;;;;;;5008026;28;20381;-83
2023/10/23 02:29:46;;;;;;;0.90;0.80;;;;;;;;;;5008719;28;20022;-84
2023/10/23 02:32:12;;;;;;;1.20;0.90;;;;;;;;;;5008612;28;20026;-81
2023/10/23 02:34:38;;;;;;;0.65;0.63;;;;;;;;;;5009138;28;20018;-83
2023/10/23 02:37:04;;;;;;;0.95;0.85;;;;;;;;;;5007965;28;20057;-82
2023/10/23 02:39:31;;;;;;;0.60;0.60;;;;;;;;;;5008974;28;20030;-85
2023/10/23 02:41:57;;;;;;;0.85;0.70;;;;;;;;;;5009423;28;20018;-84
2023/10/23 02:44:23;;;;;;;1.05;0.80;;;;;;;;;;5010205;28;20093;-84
2023/10/23 02:46:49;;;;;;;1.20;1.00;;;;;;;;;;5008890;28;20053;-81
2023/10/23 02:49:16;;;;;;;1.10;0.80;;;;;;;;;;5009371;28;20052;-83
2023/10/23 02:51:43;;;;;;;0.90;0.70;;;;;;;;;;5005408;28;20022;-83
2023/10/23 02:54:09;;;;;;;1.00;0.80;;;;;;;;;;5006330;28;20025;-80
2023/10/23 02:56:36;;;;;;;0.90;0.70;;;;;;;;;;5007362;28;20033;-81
2023/10/23 02:59:03;;;;;;;0.70;0.70;;;;;;;;;;5004928;28;20026;-79
2023/10/23 03:01:30;;;;;;;1.13;0.80;;;;;;;;;;5004881;28;20022;-81
2023/10/23 03:03:57;;;;;;;0.60;0.60;;;;;;;;;;5005192;28;20060;-82
2023/10/23 03:06:23;;;;;;;0.95;0.73;;;;;;;;;;5006132;28;20558;-81
2023/10/23 03:08:49;;;;;;;0.68;0.60;;;;;;;;;;5008147;28;20053;-84
2023/10/23 03:11:15;;;;;;;0.90;0.70;;;;;;;;;;5007186;28;20154;-84
2023/10/23 03:13:41;;;;;;;0.80;0.70;;;;;;;;;;5017944;28;20026;-80
2023/10/23 03:16:07;;;;;;;0.88;0.75;;;;;;;;;;5010945;28;20474;-82
2023/10/23 03:18:33;;;;;;;0.68;0.68;;;;;;;;;;5007735;28;20076;-81
2023/10/23 03:20:59;;;;;;;0.63;0.63;;;;;;;;;;5007752;28;20022;-81
2023/10/23 03:23:26;;;;;;;0.80;0.70;;;;;;;;;;5007154;28;20053;-81
2023/10/23 03:25:52;;;;;;;0.75;0.70;;;;;;;;;;5006992;28;20025;-81
2023/10/23 03:28:18;;;;;;;0.77;0.70;;;;;;;;;;5024489;28;20057;-82
2023/10/23 03:30:44;;;;;;;0.70;0.68;;;;;;;;;;5005974;28;20037;-82
2023/10/23 03:33:10;;;;;;;0.85;0.70;;;;;;;;;;5006717;28;20471;-80
2023/10/23 03:35:41;;;;;;;1.02;0.80;;;;;;;;;;5007269;28;20085;-81
2023/10/23 03:38:08;;;;;;;0.95;0.75;;;;;;;;;;5006837;28;20029;-81
2023/10/23 03:40:34;;;;;;;1.13;0.70;;;;;;;;;;5008026;28;20438;-82
2023/10/23 03:43:00;;;;;;;0.88;0.70;;;;;;;;;;5007864;28;20033;-82
2023/10/23 03:45:26;;;;;;;0.95;0.70;;;;;;;;;;5007983;28;20048;-81
2023/10/23 03:47:52;;;;;;;1.02;0.82;;;;;;;;;;5007200;28;20022;-81
2023/10/23 03:50:18;;;;;;;0.63;0.60;;;;;;;;;;5007666;28;20030;-79
2023/10/23 03:52:44;;;;;;;0.70;0.60;;;;;;;;;;5007055;28;20045;-81
2023/10/23 03:55:10;;;;;;;0.95;0.80;;;;;;;;;;5008418;28;20462;-80
2023/10/23 03:57:37;;;;;;;0.50;0.50;;;;;;;;;;5007982;28;20030;-81
2023/10/23 04:00:03;;;;;;;1.13;0.90;;;;;;;;;;5007600;28;20022;-80
2023/10/23 04:02:29;;;;;;;0.80;0.70;;;;;;;;;;5007671;28;20108;-82
2023/10/23 04:04:55;;;;;;;0.68;0.68;;;;;;;;;;5008539;28;20117;-81
2023/10/23 04:07:21;;;;;;;1.17;0.85;;;;;;;;;;5007023;28;20026;-80
2023/10/23 04:09:48;;;;;;;0.90;0.70;;;;;;;;;;5007264;28;20030;-81
2023/10/23 04:12:14;;;;;;;2.17;0.80;;;;;;;;;;5007803;28;20021;-82
2023/10/23 04:14:40;;;;;;;0.70;0.70;;;;;;;;;;5007606;28;20362;-80
2023/10/23 04:17:06;;;;;;;1.00;0.90;;;;;;;;;;5024460;28;20040;-82
2023/10/23 04:19:32;;;;;;;0.93;0.77;;;;;;;;;;5006757;28;20105;-80
2023/10/23 04:21:58;;;;;;;0.80;0.70;;;;;;;;;;5006211;28;20068;-80
2023/10/23 04:24:24;;;;;;;0.70;0.70;;;;;;;;;;5007668;28;20046;-81
2023/10/23 04:26:51;;;;;;;1.70;0.88;;;;;;;;;;5007894;28;20108;-82
2023/10/23 04:29:17;;;;;;;0.50;0.50;;;;;;;;;;5026615;28;20120;-82
2023/10/23 04:31:43;;;;;;;0.60;0.60;;;;;;;;;;5011950;28;20026;-83
2023/10/23 04:34:09;;;;;;;0.80;0.70;;;;;;;;;;5008598;28;20022;-81
2023/10/23 04:36:36;;;;;;;0.63;0.60;;;;;;;;;;5005464;28;20100;-81
2023/10/23 04:39:02;;;;;;;0.77;0.68;;;;;;;;;;5005465;28;20050;-80
2023/10/23 04:41:28;;;;;;;0.88;0.73;;;;;;;;;;5005729;28;20125;-81
2023/10/23 04:43:54;;;;;;;0.88;0.70;;;;;;;;;;5005161;28;20022;-81
2023/10/23 04:46:20;;;;;;;0.70;0.60;;;;;;;;;;5006499;28;20473;-81
2023/10/23 04:48:46;;;;;;;0.80;0.70;;;;;;;;;;5005856;28;20022;-82
2023/10/23 04:51:13;;;;;;;0.55;0.55;;;;;;;;;;5009726;28;20022;-82
2023/10/23 04:53:39;;;;;;;1.17;0.90;;;;;;;;;;5012082;28;20086;-83
2023/10/23 04:56:05;;;;;;;0.90;0.80;;;;;;;;;;5004463;28;20034;-80
2023/10/23 04:58:31;;;;;;;0.73;0.60;;;;;;;;;;5003208;28;20022;-82
2023/10/23 05:00:57;;;;;;;0.75;0.65;;;;;;;;;;5004420;28;20018;-80
2023/10/23 05:03:24;;;;;;;0.88;0.75;;;;;;;;;;5002648;28;20026;-80
2023/10/23 05:05:51;;;;;;;0.65;0.60;;;;;;;;;;5002944;28;20030;-83
2023/10/23 05:08:17;;;;;;;0.77;0.68;;;;;;;;;;5003361;28;20410;-79
2023/10/23 05:10:43;;;;;;;0.80;0.70;;;;;;;;;;5003442;28;20022;-80
2023/10/23 05:13:09;;;;;;;1.08;0.88;;;;;;;;;;5002906;28;20018;-80
2023/10/23 05:15:35;;;;;;;0.68;0.68;;;;;;;;;;5004403;28;20030;-82
2023/10/23 05:18:01;;;;;;;0.80;0.70;;;;;;;;;;5004149;28;20037;-83
2023/10/23 05:20:27;;;;;;;0.68;0.60;;;;;;;;;;5004379;28;20033;-81
2023/10/23 05:22:54;;;;;;;0.60;0.60;;;;;;;;;;5005360;28;20030;-84
2023/10/23 05:25:20;;;;;;;0.90;0.75;;;;;;;;;;5006012;28;20470;-82
2023/10/23 05:27:46;;;;;;;1.17;0.95;;;;;;;;;;5009987;28;20486;-83
2023/10/23 05:30:12;;;;;;;0.85;0.70;;;;;;;;;;5009942;28;20059;-82
2023/10/23 05:32:38;;;;;;;2.05;0.77;;;;;;;;;;5005686;28;20048;-85
2023/10/23 05:35:05;;;;;;;1.75;0.93;;;;;;;;;;5012289;28;20022;-85
2023/10/23 05:37:34;;;;;;;0.82;0.68;;;;;;;;;;5015033;28;20478;-84
2023/10/23 05:40:00;;;;;;;0.98;0.80;;;;;;;;;;5006716;28;20073;-84
2023/10/23 05:42:27;;;;;;;0.80;0.70;;;;;;;;;;5008493;28;20366;-86
2023/10/23 05:44:53;;;;;;;1.05;0.88;;;;;;;;;;5003466;28;20378;-82
2023/10/23 05:47:19;;;;;;;0.82;0.70;;;;;;;;;;5000874;28;20034;-83
2023/10/23 05:49:45;;;;;;;0.90;0.70;;;;;;;;;;5001838;28;20026;-82
2023/10/23 05:52:11;;;;;;;0.60;0.60;;;;;;;;;;5001968;28;20025;-80
2023/10/23 05:54:37;;;;;;;1.70;1.05;;;;;;;;;;5001145;28;20030;-83
2023/10/23 05:57:03;;;;;;;1.50;1.00;;;;;;;;;;5001868;28;20029;-82
2023/10/23 05:59:29;;;;;;;1.10;0.98;;;;;;;;;;5001398;28;20026;-82
2023/10/23 06:01:55;;;;;;;0.75;0.70;;;;;;;;;;5018788;28;20030;-81
2023/10/23 06:04:22;;;;;;;0.73;0.63;;;;;;;;;;5000984;28;20022;-81
2023/10/23 06:06:48;;;;;;;1.08;0.80;;;;;;;;;;5002126;28;20030;-82
2023/10/23 06:09:14;;;;;;;1.10;0.95;;;;;;;;;;5001108;28;20073;-86
2023/10/23 06:11:40;;;;;;;0.80;0.70;;;;;;;;;;5002510;28;20180;-85
2023/10/23 06:14:06;;;;;;;0.90;0.75;;;;;;;;;;5001352;28;20080;-82
2023/10/23 06:16:32;;;;;;;0.77;0.70;;;;;;;;;;5000433;28;20030;-84
2023/10/23 06:18:59;;;;;;;0.52;0.52;;;;;;;;;;5002361;28;20080;-82
2023/10/23 06:21:25;;;;;;;1.15;1.05;;;;;;;;;;5001540;28;20084;-84
2023/10/23 06:23:52;;;;;;;0.77;0.70;;;;;;;;;;5001916;28;20028;-84
2023/10/23 06:26:18;;;;;;;1.10;0.80;;;;;;;;;;5001130;28;20064;-83
2023/10/23 06:28:44;;;;;;;0.60;0.60;;;;;;;;;;5001272;28;20450;-83
2023/10/23 06:31:11;;;;;;;0.75;0.70;;;;;;;;;;5003080;28;20085;-83
2023/10/23 06:33:44;;;;;;;0.88;0.70;;;;;;;;;;5000303;28;20025;-81
2023/10/23 06:36:10;;;;;;;0.93;0.73;;;;;;;;;;5001445;28;20226;-82
2023/10/23 06:38:37;;;;;;;0.70;0.65;;;;;;;;;;5003490;28;20030;-83
2023/10/23 06:41:04;;;;;;;0.88;0.70;;;;;;;;;;5002421;28;20393;-85
2023/10/23 06:43:32;;;;;;;0.70;0.70;;;;;;;;;;5005150;28;20065;-84
2023/10/23 06:46:13;;;;;;;0.60;0.60;;;;;;;;;;5008526;28;20105;-82
2023/10/23 06:48:44;;;;;;;1.00;0.80;;;;;;;;;;5010475;28;20029;-84
2023/10/23 06:51:11;;;;;;;0.80;0.70;;;;;;;;;;5006632;28;20140;-82
2023/10/23 06:53:37;;;;;;;1.00;0.70;;;;;;;;;;5001746;28;20018;-83
2023/10/23 06:56:03;;;;;;;0.95;0.80;;;;;;;;;;5003121;28;20108;-83
2023/10/23 06:58:29;;;;;;;1.05;0.80;;;;;;;;;;5002693;28;20034;-82
2023/10/23 07:00:55;;;;;;;0.75;0.70;;;;;;;;;;5004410;28;20129;-83
2023/10/23 07:03:21;;;;;;;0.95;0.70;;;;;;;;;;5005702;28;20025;-82
2023/10/23 07:05:47;;;;;;;1.05;0.90;;;;;;;;;;5008115;28;20061;-83
2023/10/23 07:08:14;;;;;;;1.00;0.77;;;;;;;;;;5010287;28;20030;-84
2023/10/23 07:10:40;;;;;;;1.23;0.95;;;;;;;;;;5006713;28;20072;-81
2023/10/23 07:13:06;;;;;;;0.80;0.68;;;;;;;;;;5005242;28;20036;-83
2023/10/23 07:15:35;;;;;;;1.77;1.23;;;;;;;;;;5005099;28;20509;-85
2023/10/23 07:18:03;;;;;;;0.70;0.70;;;;;;;;;;5007199;28;20025;-85
2023/10/23 07:20:29;;;;;;;1.23;0.93;;;;;;;;;;5007554;28;20093;-83
2023/10/23 07:22:55;;;;;;;1.10;0.90;;;;;;;;;;5006954;28;20026;-83
2023/10/23 07:25:21;;;;;;;1.10;0.80;;;;;;;;;;5005190;28;20049;-84
2023/10/23 07:27:49;;;;;;;0.70;0.68;;;;;;;;;;5004219;28;20042;-82
2023/10/23 07:30:15;;;;;;;0.80;0.80;;;;;;;;;;5004615;28;20030;-82
2023/10/23 07:32:41;;;;;;;0.98;0.77;;;;;;;;;;5003899;28;20022;-83
2023/10/23 07:35:09;;;;;;;1.13;0.90;;;;;;;;;;5022812;28;20030;-83
2023/10/23 07:37:35;;;;;;;1.10;0.90;;;;;;;;;;5005937;28;20037;-83
2023/10/23 07:40:05;;;;;;;1.30;0.80;;;;;;;;;;5009263;28;20022;-85
2023/10/23 07:42:32;;;;;;;1.25;1.10;;;;;;;;;;5010342;28;20041;-83
2023/10/23 07:44:58;;;;;;;0.95;0.70;;;;;;;;;;5008806;28;20036;-81
2023/10/23 07:47:24;;;;;;;1.10;1.00;;;;;;;;;;5004433;28;20064;-82
2023/10/23 07:49:50;;;;;;;0.65;0.60;;;;;;;;;;5004691;28;20022;-82
2023/10/23 07:52:17;;;;;;;0.65;0.60;;;;;;;;;;5004607;28;20359;-81
2023/10/23 07:54:43;;;;;;;0.80;0.70;;;;;;;;;;5003011;28;20018;-83
2023/10/23 07:57:09;;;;;;;1.27;0.90;;;;;;;;;;5004670;28;20053;-83
2023/10/23 07:59:35;;;;;;;0.60;0.60;;;;;;;;;;5008728;28;20030;-82
2023/10/23 08:02:01;;;;;;;0.60;0.60;;;;;;;;;;5008796;28;20022;-83
2023/10/23 08:04:27;;;;;;;0.70;0.70;;;;;;;;;;5009196;28;20173;-85
2023/10/23 08:06:53;;;;;;;0.60;0.60;;;;;;;;;;5008473;28;20061;-83
2023/10/23 08:09:19;;;;;;;0.80;0.70;;;;;;;;;;5009860;28;20026;-85
2023/10/23 08:11:47;;;;;;;0.90;0.70;;;;;;;;;;5011030;28;20034;-81
2023/10/23 08:14:13;;;;;;;0.80;0.70;;;;;;;;;;5007690;28;20026;-81
2023/10/23 08:16:40;;;;;;;0.73;0.70;;;;;;;;;;5008468;28;20042;-84
2023/10/23 08:19:07;;;;;;;0.75;0.70;;;;;;;;;;5009632;28;20029;-85
2023/10/23 08:21:34;;;;;;;0.60;0.60;;;;;;;;;;5010613;28;20022;-85
2023/10/23 08:24:00;;;;;;;0.70;0.70;;;;;;;;;;4997226;28;20018;-83
2023/10/23 08:26:29;;;;;;;1.13;1.02;;;;;;;;;;4990405;28;20081;-84
2023/10/23 08:28:55;;;;;;;1.05;0.95;;;;;;;;;;4982852;28;20050;-84
2023/10/23 08:31:21;;;;;;;0.70;0.70;;;;;;;;;;4968518;29;20023;-82
2023/10/23 08:33:47;;;;;;;0.70;0.70;;;;;;;;;;4969972;29;20036;-84
2023/10/23 08:36:13;;;;;;;1.75;1.20;;;;;;;;;;4982743;28;20023;-85
2023/10/23 08:38:43;;;;;;;0.65;0.60;;;;;;;;;;4982240;28;20082;-84
2023/10/23 08:41:12;;;;;;;0.93;0.75;;;;;;;;;;4981659;28;20025;-81
2023/10/23 08:43:43;;;;;;;0.68;0.68;;;;;;;;;;4986145;28;20026;-84
2023/10/23 08:46:10;;;;;;;1.10;1.00;;;;;;;;;;4977510;28;20020;-82
2023/10/23 08:48:37;;;;;;;0.80;0.80;;;;;;;;;;4974202;28;20058;-87
2023/10/23 08:51:04;;;;;;;0.77;0.75;;;;;;;;;;4981706;28;20026;-88
2023/10/23 08:53:34;;;;;;;0.50;0.50;;;;;;;;;;4974499;28;20039;-84
2023/10/23 08:56:07;;;;;;;0.70;0.70;;;;;;;;;;4975518;28;20147;-84
2023/10/23 08:58:37;;;;;;;0.90;0.80;;;;;;;;;;4983198;28;20027;-83
2023/10/23 09:01:08;;;;;;;0.60;0.60;;;;;;;;;;4978950;28;20015;-87
2023/10/23 09:03:54;;;;;;;0.60;0.60;;;;;;;;;;4952122;29;20147;-83
2023/10/23 09:06:21;;;;;;;0.60;0.60;;;;;;;;;;4943482;29;20040;-86
2023/10/23 09:08:53;;;;;;;0.60;0.60;;;;;;;;;;4936795;29;20023;-87
2023/10/23 09:11:20;;;;;;;0.60;0.60;;;;;;;;;;4941943;29;20028;-81
2023/10/23 09:13:46;;;;;;;0.60;0.60;;;;;;;;;;4941119;29;20034;-86
2023/10/23 09:16:18;;;;;;;1.95;0.57;;;;;;;;;;4967885;29;20119;-88
2023/10/23 09:18:51;;;;;;;0.60;0.60;;;;;;;;;;4965855;29;20043;-86
2023/10/23 09:21:17;;;;;;;0.50;0.50;;;;;;;;;;4965873;28;20031;-86
2023/10/23 09:23:55;;;;;;;0.50;0.50;;;;;;;;;;4958926;28;20032;-88
2023/10/23 09:26:24;;;;;;;0.60;0.60;;;;;;;;;;4951691;29;20031;-88
2023/10/23 09:28:53;;;;;;;0.80;0.80;;;;;;;;;;4974477;29;20036;-88
2023/10/23 09:31:23;;;;;;;1.05;1.05;;;;;;;;;;4938462;29;20019;-88
2023/10/23 09:40:38;;;;;;;0.85;0.80;;;;;;;;;;5019284;28;20115;-88
2023/10/23 09:43:47;;;;;;;0.60;0.60;;;;;;;;;;5103162;23;20058;-86
2023/10/23 09:46:57;;;;;;;0.65;0.65;;;;;;;;;;5026381;28;20030;-88
2023/10/23 09:50:08;;;;;;;0.50;0.50;;;;;;;;;;4978680;28;20031;-88
2023/10/23 09:53:03;;;;;;;0.50;0.50;;;;;;;;;;4958638;29;20063;-85
2023/10/23 09:55:49;;;;;;;0.50;0.50;;;;;;;;;;4913692;29;20097;-86
2023/10/23 09:59:01;;;;;;;0.50;0.50;;;;;;;;;;4884753;29;20037;-86
2023/10/23 10:02:11;;;;;;;0.50;0.50;;;;;;;;;;4882996;29;20039;-89
2023/10/23 10:05:25;;;;;;;0.50;0.50;;;;;;;;;;4844798;29;20006;-88
2023/10/23 10:08:49;;;;;;;1.35;0.43;;;;;;;;;;4827023;29;20075;-86
2023/10/23 10:11:58;;;;;;;0.40;0.40;;;;;;;;;;4826331;29;20035;-87
2023/10/23 10:14:46;;;;;;;0.75;0.60;;;;;;;;;;4772399;30;20048;-87
2023/10/23 10:18:03;;;;;;;0.47;0.47;;;;;;;;;;4771593;30;20044;-87
2023/10/23 10:20:44;;;;;;;0.77;0.75;;;;;;;;;;4751100;30;20036;-87
2023/10/23 10:26:43;;;;;;;0.75;0.50;;;;;;;;;;4782507;30;20066;-84
2023/10/23 10:30:04;;;;;;;0.40;0.40;;;;;;;;;;4792183;30;20062;-83
2023/10/23 10:33:07;;;;;;;0.40;0.40;;;;;;;;;;4805583;29;20142;-83
2023/10/23 10:36:07;;;;;;;0.30;0.30;;;;;;;;;;4810409;29;20020;-83
2023/10/23 10:39:10;;;;;;;0.50;0.50;;;;;;;;;;4810529;29;20027;-82
2023/10/23 10:51:37;;;;;;;0.45;0.45;;;;;;;;;;4863956;29;20040;-89
2023/10/23 10:57:32;;;;;;;0.30;0.30;;;;;;;;;;4917685;29;20063;-88
2023/10/23 11:00:58;;;;;;;0.30;0.30;;;;;;;;;;4823950;29;20094;-88
2023/10/23 11:04:10;;;;;;;0.40;0.40;;;;;;;;;;4841281;29;20042;-87
2023/10/23 11:13:23;;;;;;;0.45;0.45;;;;;;;;;;4842601;29;20684;-87
2023/10/23 11:19:19;;;;;;;0.40;0.40;;;640.00;2176.00;;;;;;4842003;29;20071;-88
2023/10/23 11:22:13;;;;;;;0.30;0.30;;;;;;;;;;4825761;29;20046;-88
2023/10/23 11:25:17;;;;;;;0.30;0.30;;;;;;;;;;4842944;29;20038;-88
2023/10/23 11:28:25;;;;;;;0.30;0.30;;;;;;;;;;4787915;30;20036;-87
2023/10/23 11:35:07;;;;;;;0.30;0.30;;;666.00;2048.00;;;;;;4737499;30;20043;-88
2023/10/23 11:38:42;;;;;;;0.30;0.30;;;666.50;2048.00;;;;;;4729483;30;20036;-88
2023/10/23 11:54:29;;;;;;;0.40;0.40;;;;;;;;;;4807013;29;20109;-87
2023/10/23 12:01:12;;;;;;;0.30;0.30;;;;;;;;;;4813285;29;20054;-87
2023/10/23 12:04:09;;;;;;;0.30;0.30;;;;;;;;;;4836373;29;20041;-83
2023/10/23 12:19:15;;;;;;;0.20;0.20;;;;;;;;;;4942333;29;20092;-87
2023/10/23 12:22:21;;;;;;;0.20;0.20;;;;;;;;;;4943059;29;20036;-81
2023/10/23 12:34:02;;;;;;;0.20;0.20;;;;;;;;;;5001096;28;20045;-81
2023/10/23 12:36:47;;;;;;;0.20;0.20;;;;;;;;;;4993456;28;20038;-80
2023/10/23 12:51:56;;;;;;;0.20;0.20;;;;;;;;;;5017774;28;20070;-78
2023/10/23 12:54:46;;;;;;;0.43;0.28;;;;;;;;;;4985484;28;20038;-77
2023/10/23 12:57:58;;;;;;;0.20;0.20;;;;;;;;;;5016435;28;20035;-77
2023/10/23 13:03:21;;;;;;;0.20;0.20;;;;;;;;;;4987719;28;19976;-84
2023/10/23 13:05:51;;;;;;;0.60;0.40;;;;;;;;;;4967979;28;20098;-79
2023/10/23 13:08:18;;;;;;;0.50;0.45;;;;;;;;;;4971067;29;20063;-79
2023/10/23 13:10:44;;;;;;;0.77;0.28;;;;;;;;;;4971689;29;20090;-80
2023/10/23 13:13:10;;;;;;;0.22;0.22;;;;;;;;;;4970866;29;20098;-78
2023/10/23 13:15:36;;;;;;;0.63;0.38;;;;;;;;;;4968524;29;20099;-78
2023/10/23 13:18:03;;;;;;;0.20;0.20;;;;;;;;;;4968041;29;20255;-80
2023/10/23 13:20:29;;;;;;;0.25;0.25;;;;;;;;;;4965187;29;20126;-81
2023/10/23 13:22:55;;;;;;;0.30;0.30;;;;;;;;;;4965644;29;20047;-79
2023/10/23 13:25:21;;;;;;;0.57;0.38;;;;;;;;;;4966009;29;20038;-79
2023/10/23 13:27:47;;;;;;;0.25;0.25;;;;;;;;;;4968973;29;20035;-78
2023/10/23 13:30:14;;;;;;;0.22;0.22;;;;;;;;;;4976298;28;20041;-78
2023/10/23 13:32:40;;;;;;;0.20;0.20;;;;;;;;;;4994896;28;20027;-78
2023/10/23 13:35:07;;;;;;;0.75;0.55;;;;;;;;;;4996621;28;20058;-78
2023/10/23 13:37:34;;;;;;;0.30;0.30;;;;;;;;;;5010381;28;20045;-78
2023/10/23 13:40:06;;;;;;;0.30;0.30;;;;;;;;;;5013025;28;20030;-78
2023/10/23 13:42:32;;;;;;;0.20;0.20;;;;;;;;;;5011233;28;20053;-79
2023/10/23 13:44:59;;;;;;;0.20;0.20;;;;;;;;;;5016067;28;20050;-79
2023/10/23 13:47:25;;;;;;;0.43;0.40;;;;;;;;;;5015762;28;20034;-80
2023/10/23 13:49:55;;;;;;;0.43;0.40;;;;;;;;;;5013291;28;20026;-77
2023/10/23 13:52:22;;;;;;;0.20;0.20;;;;;;;;;;5006039;28;20070;-78
2023/10/23 13:54:48;;;;;;;0.38;0.30;;;;;;;;;;4993133;28;20082;-80
2023/10/23 13:57:32;;;;;;;0.20;0.20;;;;;;;;;;4997659;28;20022;-78
2023/10/23 13:59:58;;;;;;;0.30;0.30;;;;;;;;;;4979136;28;20512;-78
2023/10/23 14:02:25;;;;;;;0.30;0.30;;;;;;;;;;4974015;28;20483;-77
2023/10/23 14:04:51;;;;;;;0.45;0.45;;;;;;;;;;4990926;28;20022;-80
2023/10/23 14:07:19;;;;;;;0.30;0.30;;;;;;;;;;4989701;28;20037;-83
2023/10/23 14:09:45;;;;;;;0.30;0.30;;;;;;;;;;4991822;28;20022;-86
2023/10/23 14:12:11;;;;;;;0.20;0.20;;;;;;;;;;4987863;28;20027;-80
2023/10/23 14:14:38;;;;;;;0.30;0.30;;;;;;;;;;4991367;28;20046;-79
2023/10/23 14:17:05;;;;;;;0.30;0.30;;;;;;;;;;4994425;28;20125;-83
2023/10/23 14:19:34;;;;;;;0.30;0.30;;;;;;;;;;4995516;28;20031;-86
2023/10/23 14:22:13;;;;;;;0.47;0.45;;;;;;;;;;5012685;28;20027;-85
2023/10/23 14:25:04;;;;;;;0.95;0.45;;;;;;;;;;5010911;28;20045;-85
2023/10/23 14:27:30;;;;;;;0.30;0.30;;;;;;;;;;5012782;28;20053;-85
2023/10/23 14:29:57;;;;;;;0.40;0.40;;;;;;;;;;5012955;28;20086;-84
2023/10/23 14:32:23;;;;;;;0.40;0.40;;;;;;;;;;5007890;28;20029;-79
2023/10/23 14:34:51;;;;;;;0.30;0.30;;;;;;;;;;5014604;28;20022;-84
2023/10/23 14:37:18;;;;;;;0.47;0.47;;;;;;;;;;4966082;28;20150;-86
2023/10/23 14:40:26;;;;;;;0.30;0.30;;;;;;;;;;4966155;28;20054;-88
2023/10/23 14:42:57;;;;;;;0.30;0.30;;;;;;;;;;4899152;29;20047;-84
2023/10/23 14:45:49;;;;;;;0.30;0.30;;;;;;;;;;4856883;29;20102;-83
2023/10/23 14:48:17;;;;;;;0.40;0.40;;;;;;;;;;4841574;29;20428;-85
2023/10/23 14:50:46;;;;;;;0.43;0.43;;;;;;;;;;4841314;29;20030;-86
2023/10/23 14:53:13;;;;;;;0.43;0.43;;;;;;;;;;4842705;29;20050;-82
2023/10/23 14:55:40;;;;;;;0.38;0.38;;;;;;;;;;4842794;29;20081;-86
2023/10/23 14:58:07;;;;;;;0.30;0.30;;;;;;;;;;4809357;29;20044;-85
2023/10/23 15:00:38;;;;;;;0.47;0.47;;;;;;;;;;4805836;29;20031;-84
2023/10/23 15:03:04;;;;;;;0.30;0.30;;;;;;;;;;4790540;30;20547;-85
2023/10/23 15:05:32;;;;;;;0.50;0.50;;;;;;;;;;4805386;30;20102;-85
2023/10/23 15:08:01;;;;;;;0.40;0.40;;;;;;;;;;4822302;29;20053;-85
2023/10/23 15:10:27;;;;;;;0.30;0.30;;;;;;;;;;4828799;29;20030;-86
2023/10/23 15:12:54;;;;;;;0.50;0.50;;;;;;;;;;4829458;29;20034;-82
2023/10/23 15:15:33;;;;;;;0.30;0.30;;;;;;;;;;4832380;29;20046;-83
2023/10/23 15:18:00;;;;;;;0.40;0.40;;;;;;;;;;4881193;29;20030;-85
2023/10/23 15:20:29;;;;;;;0.30;0.30;;;;;;;;;;4971649;29;20524;-85
2023/10/23 15:22:56;;;;;;;0.32;0.32;;;;;;;;;;4961088;29;20035;-85
2023/10/23 15:25:23;;;;;;;0.40;0.40;;;;;;;;;;4976064;29;20035;-83
2023/10/23 15:27:50;;;;;;;1.23;0.55;;;;;;;;;;4959931;29;20035;-83
2023/10/23 15:30:18;;;;;;;0.30;0.30;;;;;;;;;;4960177;29;20027;-86
2023/10/23 15:35:29;;;;;;;0.40;0.40;;;;;;;;;;4987352;28;20069;-85
2023/10/23 15:38:32;;;;;;;0.40;0.40;;;588.90;2201.60;;;;;;4997173;28;20034;-84
2023/10/23 15:41:10;;;;;;;0.30;0.30;;;588.80;2227.20;;;;;;4904328;29;20067;-85
2023/10/23 15:43:38;;;;;;;0.30;0.30;;;564.10;2227.20;;;;;;4923183;29;20028;-84
2023/10/23 15:46:05;;;;;;;0.50;0.50;;;564.00;2227.20;;;;;;4939372;29;20036;-84
2023/10/23 15:48:31;;;;;;;0.50;0.50;;;563.90;2252.80;;;;;;4922755;29;20024;-85
2023/10/23 15:51:02;;;;;;;0.40;0.40;;;;;;;;;;4922175;29;20044;-86
2023/10/23 15:53:28;;;;;;;0.40;0.40;;;;;;;;;;4919264;29;20104;-85
2023/10/23 15:55:55;;;;;;;0.40;0.40;;;;;;;;;;4921197;29;20032;-85
2023/10/23 15:58:23;;;;;;;0.30;0.30;;;563.80;2252.80;;;;;;4921329;29;20080;-85
2023/10/23 16:00:57;;;;;;;0.40;0.40;;;563.60;2278.40;;;;;;4920884;29;20047;-85
2023/10/23 16:03:26;;;;;;;0.40;0.40;;;;;;;;;;4905649;29;20037;-84
2023/10/23 16:05:53;;;;;;;0.40;0.40;;;;;;;;;;4917943;29;20458;-82
2023/10/23 16:08:20;;;;;;;0.45;0.40;;;;;;;;;;4916806;29;20033;-84
2023/10/23 16:10:50;;;;;;;0.40;0.40;;;;;;;;;;4919234;29;20040;-84
2023/10/23 16:13:16;;;;;;;0.40;0.40;;;;;;;;;;4919353;29;20035;-85
2023/10/23 16:15:45;;;;;;;0.60;0.60;;;;;;;;;;4919911;29;20088;-85
2023/10/23 16:18:13;;;;;;;0.52;0.52;;;538.30;2304.00;;;;;;4953924;29;20183;-83
2023/10/23 16:20:41;;;;;;;0.50;0.50;;;538.30;2304.00;;;;;;4941431;29;20035;-83
2023/10/23 16:23:08;;;;;;;0.55;0.55;;;538.20;2329.60;;;;;;4940451;29;20036;-82
2023/10/23 16:25:41;;;;;;;0.70;0.70;;;538.20;2355.20;;;;;;4941846;29;20028;-84
2023/10/23 16:28:08;;;;;;;1.10;1.00;;;;;;;;;;4941407;29;20169;-83
2023/10/23 16:30:34;;;;;;;0.50;0.50;;;;;;;;;;4942101;29;20034;-83